sensor_id;sensor_type;location;lat;lon;timestamp;pressure;altitude;pressure_sealevel;temperature;humidity
61119;BME280;51448;51.660;5.824;2023-06-14T00:01:18;101357.06;;;18.37;49.08
61119;BME280;51448;51.660;5.824;2023-06-14T00:04:07;101355.44;;;18.34;48.75
61119;BME280;51448;51.660;5.824;2023-06-14T00:06:56;101357.47;;;18.29;48.95
61119;BME280;51448;51.660;5.824;2023-06-14T00:09:45;101362.97;;;18.26;48.74
61119;BME280;51448;51.660;5.824;2023-06-14T00:12:33;101360.53;;;18.21;48.58
61119;BME280;51448;51.660;5.824;2023-06-14T00:15:20;101355.44;;;18.17;48.44
61119;BME280;51448;51.660;5.824;2023-06-14T00:18:08;101353.72;;;18.16;48.36
61119;BME280;51448;51.660;5.824;2023-06-14T00:20:59;101359.97;;;18.15;48.19
61119;BME280;51448;51.660;5.824;2023-06-14T00:23:46;101358.28;;;18.14;48.06
61119;BME280;51448;51.660;5.824;2023-06-14T00:26:34;101354.91;;;18.10;47.73
61119;BME280;51448;51.660;5.824;2023-06-14T00:29:22;101356.72;;;18.09;47.62
61119;BME280;51448;51.660;5.824;2023-06-14T00:32:10;101361.25;;;18.07;47.67
61119;BME280;51448;51.660;5.824;2023-06-14T00:34:58;101358.66;;;18.06;47.67
61119;BME280;51448;51.660;5.824;2023-06-14T00:37:46;101371.25;;;18.02;47.61
61119;BME280;51448;51.660;5.824;2023-06-14T00:40:34;101378.56;;;17.99;48.06
61119;BME280;51448;51.660;5.824;2023-06-14T00:43:22;101365.44;;;17.94;47.85
61119;BME280;51448;51.660;5.824;2023-06-14T00:46:10;101369.22;;;17.90;47.84
61119;BME280;51448;51.660;5.824;2023-06-14T00:48:59;101372.91;;;17.87;47.63
61119;BME280;51448;51.660;5.824;2023-06-14T00:51:48;101374.84;;;17.84;47.84
61119;BME280;51448;51.660;5.824;2023-06-14T00:54:36;101374.91;;;17.82;47.91
61119;BME280;51448;51.660;5.824;2023-06-14T00:57:24;101371.47;;;17.80;47.71
61119;BME280;51448;51.660;5.824;2023-06-14T01:00:12;101377.78;;;17.78;47.66
61119;BME280;51448;51.660;5.824;2023-06-14T01:03:02;101375.28;;;17.75;47.66
61119;BME280;51448;51.660;5.824;2023-06-14T01:05:56;101375.28;;;17.75;47.88
61119;BME280;51448;51.660;5.824;2023-06-14T01:09:58;101378.84;;;17.74;47.47
61119;BME280;51448;51.660;5.824;2023-06-14T01:15:45;101386.28;;;17.67;47.57
61119;BME280;51448;51.660;5.824;2023-06-14T01:18:34;101382.00;;;17.64;47.63
61119;BME280;51448;51.660;5.824;2023-06-14T01:21:25;101382.13;;;17.61;47.77
61119;BME280;51448;51.660;5.824;2023-06-14T01:24:13;101381.44;;;17.58;47.76
61119;BME280;51448;51.660;5.824;2023-06-14T01:27:01;101376.19;;;17.56;48.21
61119;BME280;51448;51.660;5.824;2023-06-14T01:29:51;101379.13;;;17.50;48.29
61119;BME280;51448;51.660;5.824;2023-06-14T01:32:44;101375.03;;;17.43;48.46
61119;BME280;51448;51.660;5.824;2023-06-14T01:35:34;101379.66;;;17.39;48.49
61119;BME280;51448;51.660;5.824;2023-06-14T01:38:24;101384.25;;;17.36;48.76
61119;BME280;51448;51.660;5.824;2023-06-14T01:41:14;101385.41;;;17.30;48.57
61119;BME280;51448;51.660;5.824;2023-06-14T01:44:03;101381.16;;;17.26;48.79
61119;BME280;51448;51.660;5.824;2023-06-14T01:46:54;101377.88;;;17.21;48.91
61119;BME280;51448;51.660;5.824;2023-06-14T01:49:42;101386.84;;;17.18;49.15
61119;BME280;51448;51.660;5.824;2023-06-14T01:52:30;101384.47;;;17.12;49.09
61119;BME280;51448;51.660;5.824;2023-06-14T01:55:18;101393.59;;;17.06;49.29
61119;BME280;51448;51.660;5.824;2023-06-14T01:58:10;101385.81;;;17.02;49.33
61119;BME280;51448;51.660;5.824;2023-06-14T02:00:58;101375.47;;;16.96;49.59
61119;BME280;51448;51.660;5.824;2023-06-14T02:03:48;101380.28;;;16.87;49.55
61119;BME280;51448;51.660;5.824;2023-06-14T02:06:36;101382.31;;;16.82;49.92
61119;BME280;51448;51.660;5.824;2023-06-14T02:09:24;101380.81;;;16.75;49.83
61119;BME280;51448;51.660;5.824;2023-06-14T02:12:14;101380.16;;;16.70;49.98
61119;BME280;51448;51.660;5.824;2023-06-14T02:15:02;101386.56;;;16.66;49.95
61119;BME280;51448;51.660;5.824;2023-06-14T02:17:51;101372.59;;;16.61;50.04
61119;BME280;51448;51.660;5.824;2023-06-14T02:20:39;101372.81;;;16.56;50.18
61119;BME280;51448;51.660;5.824;2023-06-14T02:23:27;101371.28;;;16.50;50.31
61119;BME280;51448;51.660;5.824;2023-06-14T02:26:15;101381.19;;;16.47;50.63
61119;BME280;51448;51.660;5.824;2023-06-14T02:29:03;101385.78;;;16.43;50.53
61119;BME280;51448;51.660;5.824;2023-06-14T02:31:55;101387.63;;;16.41;50.68
61119;BME280;51448;51.660;5.824;2023-06-14T02:34:43;101388.69;;;16.37;51.09
61119;BME280;51448;51.660;5.824;2023-06-14T02:37:30;101381.75;;;16.35;51.29
61119;BME280;51448;51.660;5.824;2023-06-14T02:40:19;101386.31;;;16.31;51.49
61119;BME280;51448;51.660;5.824;2023-06-14T02:43:07;101390.88;;;16.27;51.35
61119;BME280;51448;51.660;5.824;2023-06-14T02:45:56;101388.38;;;16.24;51.69
61119;BME280;51448;51.660;5.824;2023-06-14T02:48:44;101392.94;;;16.21;51.67
61119;BME280;51448;51.660;5.824;2023-06-14T02:51:32;101386.94;;;16.16;51.71
61119;BME280;51448;51.660;5.824;2023-06-14T02:54:20;101387.22;;;16.09;51.89
61119;BME280;51448;51.660;5.824;2023-06-14T02:57:08;101393.56;;;16.05;52.02
61119;BME280;51448;51.660;5.824;2023-06-14T02:59:59;101395.56;;;16.00;51.98
61119;BME280;51448;51.660;5.824;2023-06-14T03:02:47;101393.97;;;15.96;52.35
61119;BME280;51448;51.660;5.824;2023-06-14T03:05:35;101402.03;;;15.93;52.29
61119;BME280;51448;51.660;5.824;2023-06-14T03:08:23;101406.56;;;15.91;52.58
61119;BME280;51448;51.660;5.824;2023-06-14T03:11:16;101397.00;;;15.87;52.68
61119;BME280;51448;51.660;5.824;2023-06-14T03:14:08;101407.75;;;15.84;52.88
61119;BME280;51448;51.660;5.824;2023-06-14T03:16:58;101410.59;;;15.79;53.09
61119;BME280;51448;51.660;5.824;2023-06-14T03:19:49;101402.81;;;15.75;53.09
61119;BME280;51448;51.660;5.824;2023-06-14T03:22:37;101408.19;;;15.73;53.31
61119;BME280;51448;51.660;5.824;2023-06-14T03:25:29;101415.38;;;15.69;53.72
61119;BME280;51448;51.660;5.824;2023-06-14T03:28:17;101413.75;;;15.65;53.90
61119;BME280;51448;51.660;5.824;2023-06-14T03:31:05;101415.66;;;15.62;54.12
61119;BME280;51448;51.660;5.824;2023-06-14T03:33:53;101414.84;;;15.60;54.07
61119;BME280;51448;51.660;5.824;2023-06-14T03:36:42;101424.63;;;15.59;54.23
61119;BME280;51448;51.660;5.824;2023-06-14T03:39:30;101427.25;;;15.59;54.39
61119;BME280;51448;51.660;5.824;2023-06-14T03:42:18;101427.25;;;15.59;54.70
61119;BME280;51448;51.660;5.824;2023-06-14T03:45:07;101428.97;;;15.60;54.61
61119;BME280;51448;51.660;5.824;2023-06-14T03:47:55;101428.13;;;15.60;54.74
61119;BME280;51448;51.660;5.824;2023-06-14T03:50:44;101431.72;;;15.59;54.65
61119;BME280;51448;51.660;5.824;2023-06-14T03:53:32;101431.75;;;15.57;54.62
61119;BME280;51448;51.660;5.824;2023-06-14T03:56:20;101430.91;;;15.57;54.70
61119;BME280;51448;51.660;5.824;2023-06-14T03:59:08;101433.63;;;15.55;55.14
61119;BME280;51448;51.660;5.824;2023-06-14T04:01:57;101429.16;;;15.56;55.18
61119;BME280;51448;51.660;5.824;2023-06-14T04:04:44;101429.22;;;15.54;55.66
61119;BME280;51448;51.660;5.824;2023-06-14T04:07:33;101439.81;;;15.54;55.54
61119;BME280;51448;51.660;5.824;2023-06-14T04:10:29;101439.91;;;15.53;55.81
61119;BME280;51448;51.660;5.824;2023-06-14T04:13:17;101443.41;;;15.53;55.75
61119;BME280;51448;51.660;5.824;2023-06-14T04:16:05;101452.22;;;15.54;56.32
61119;BME280;51448;51.660;5.824;2023-06-14T04:18:55;101453.81;;;15.58;56.50
61119;BME280;51448;51.660;5.824;2023-06-14T04:21:45;101449.28;;;15.61;57.26
61119;BME280;51448;51.660;5.824;2023-06-14T04:24:35;101453.63;;;15.62;57.34
61119;BME280;51448;51.660;5.824;2023-06-14T04:27:23;101450.03;;;15.65;57.26
61119;BME280;51448;51.660;5.824;2023-06-14T04:30:13;101447.28;;;15.66;57.35
61119;BME280;51448;51.660;5.824;2023-06-14T04:33:08;101456.00;;;15.70;57.95
61119;BME280;51448;51.660;5.824;2023-06-14T04:35:57;101450.53;;;15.75;58.20
61119;BME280;51448;51.660;5.824;2023-06-14T04:38:45;101462.69;;;15.80;58.79
61119;BME280;51448;51.660;5.824;2023-06-14T04:41:34;101455.34;;;15.87;58.82
61119;BME280;51448;51.660;5.824;2023-06-14T04:44:23;101462.00;;;15.97;59.59
61119;BME280;51448;51.660;5.824;2023-06-14T04:47:24;101467.38;;;16.18;58.92
61119;BME280;51448;51.660;5.824;2023-06-14T04:50:18;101461.97;;;16.41;58.54
61119;BME280;51448;51.660;5.824;2023-06-14T04:53:08;101462.50;;;16.70;58.11
61119;BME280;51448;51.660;5.824;2023-06-14T04:55:56;101465.91;;;16.94;57.40
61119;BME280;51448;51.660;5.824;2023-06-14T04:58:45;101468.44;;;17.16;56.66
61119;BME280;51448;51.660;5.824;2023-06-14T05:01:34;101460.50;;;17.35;56.02
61119;BME280;51448;51.660;5.824;2023-06-14T05:04:22;101468.59;;;17.51;55.68
61119;BME280;51448;51.660;5.824;2023-06-14T05:07:12;101472.25;;;17.67;55.04
61119;BME280;51448;51.660;5.824;2023-06-14T05:10:11;101471.84;;;17.77;54.67
61119;BME280;51448;51.660;5.824;2023-06-14T05:12:59;101483.94;;;17.84;54.72
61119;BME280;51448;51.660;5.824;2023-06-14T05:15:47;101480.06;;;17.91;53.98
61119;BME280;51448;51.660;5.824;2023-06-14T05:18:36;101484.34;;;17.94;54.43
61119;BME280;51448;51.660;5.824;2023-06-14T05:21:25;101490.41;;;17.97;54.25
61119;BME280;51448;51.660;5.824;2023-06-14T05:24:14;101484.84;;;18.02;54.07
61119;BME280;51448;51.660;5.824;2023-06-14T05:27:02;101494.34;;;18.07;54.01
61119;BME280;51448;51.660;5.824;2023-06-14T05:29:50;101496.69;;;18.14;54.16
61119;BME280;51448;51.660;5.824;2023-06-14T05:32:38;101491.84;;;18.22;53.70
61119;BME280;51448;51.660;5.824;2023-06-14T05:35:26;101491.63;;;18.26;53.64
61119;BME280;51448;51.660;5.824;2023-06-14T05:38:14;101493.91;;;18.34;53.50
61119;BME280;51448;51.660;5.824;2023-06-14T05:41:02;101497.91;;;18.43;53.53
61119;BME280;51448;51.660;5.824;2023-06-14T05:43:50;101506.22;;;18.54;53.42
61119;BME280;51448;51.660;5.824;2023-06-14T05:46:38;101502.94;;;18.66;53.28
61119;BME280;51448;51.660;5.824;2023-06-14T05:49:27;101505.19;;;18.74;52.92
61119;BME280;51448;51.660;5.824;2023-06-14T05:52:15;101510.16;;;18.82;52.79
61119;BME280;51448;51.660;5.824;2023-06-14T05:55:04;101506.91;;;18.93;52.48
61119;BME280;51448;51.660;5.824;2023-06-14T05:57:52;101515.22;;;19.04;51.71
61119;BME280;51448;51.660;5.824;2023-06-14T06:00:40;101518.50;;;19.09;51.48
61119;BME280;51448;51.660;5.824;2023-06-14T06:03:28;101524.47;;;19.14;52.14
61119;BME280;51448;51.660;5.824;2023-06-14T06:06:17;101525.63;;;19.26;51.85
61119;BME280;51448;51.660;5.824;2023-06-14T06:09:05;101522.28;;;19.38;51.97
61119;BME280;51448;51.660;5.824;2023-06-14T06:11:54;101518.06;;;19.50;51.61
61119;BME280;51448;51.660;5.824;2023-06-14T06:14:42;101524.53;;;19.62;51.26
61119;BME280;51448;51.660;5.824;2023-06-14T06:17:30;101524.75;;;19.75;50.53
61119;BME280;51448;51.660;5.824;2023-06-14T06:20:38;101525.97;;;19.85;50.13
61119;BME280;51448;51.660;5.824;2023-06-14T06:23:26;101525.47;;;19.94;49.59
61119;BME280;51448;51.660;5.824;2023-06-14T06:26:14;101524.00;;;20.04;49.48
61119;BME280;51448;51.660;5.824;2023-06-14T06:29:02;101529.47;;;20.17;49.68
61119;BME280;51448;51.660;5.824;2023-06-14T06:31:50;101535.84;;;20.30;49.71
61119;BME280;51448;51.660;5.824;2023-06-14T06:34:37;101534.78;;;20.49;49.11
61119;BME280;51448;51.660;5.824;2023-06-14T06:37:25;101535.50;;;20.67;48.21
61119;BME280;51448;51.660;5.824;2023-06-14T06:40:13;101544.47;;;20.82;47.67
61119;BME280;51448;51.660;5.824;2023-06-14T06:43:02;101546.78;;;21.02;47.72
61119;BME280;51448;51.660;5.824;2023-06-14T06:45:52;101544.59;;;21.23;47.39
61119;BME280;51448;51.660;5.824;2023-06-14T06:48:39;101549.53;;;21.45;47.54
61119;BME280;51448;51.660;5.824;2023-06-14T06:51:27;101550.66;;;21.70;47.01
61119;BME280;51448;51.660;5.824;2023-06-14T06:54:15;101544.00;;;21.90;46.68
61119;BME280;51448;51.660;5.824;2023-06-14T06:57:03;101554.50;;;22.07;45.74
61119;BME280;51448;51.660;5.824;2023-06-14T06:59:51;101563.28;;;22.24;44.81
61119;BME280;51448;51.660;5.824;2023-06-14T07:02:39;101558.81;;;22.37;44.51
61119;BME280;51448;51.660;5.824;2023-06-14T07:05:27;101556.06;;;22.52;44.27
61119;BME280;51448;51.660;5.824;2023-06-14T07:08:15;101569.53;;;22.64;43.45
61119;BME280;51448;51.660;5.824;2023-06-14T07:11:02;101570.63;;;22.75;43.32
61119;BME280;51448;51.660;5.824;2023-06-14T07:13:51;101557.56;;;22.83;42.48
61119;BME280;51448;51.660;5.824;2023-06-14T07:16:40;101574.25;;;22.86;42.20
61119;BME280;51448;51.660;5.824;2023-06-14T07:19:28;101577.50;;;22.92;41.61
61119;BME280;51448;51.660;5.824;2023-06-14T07:22:18;101582.66;;;22.95;42.38
61119;BME280;51448;51.660;5.824;2023-06-14T07:25:07;101573.91;;;23.05;41.44
61119;BME280;51448;51.660;5.824;2023-06-14T07:27:56;101570.34;;;23.05;41.45
61119;BME280;51448;51.660;5.824;2023-06-14T07:30:44;101574.53;;;23.09;40.89
61119;BME280;51448;51.660;5.824;2023-06-14T07:33:31;101579.28;;;23.18;41.35
61119;BME280;51448;51.660;5.824;2023-06-14T07:36:19;101579.50;;;23.28;41.06
61119;BME280;51448;51.660;5.824;2023-06-14T07:39:07;101579.84;;;23.36;41.18
61119;BME280;51448;51.660;5.824;2023-06-14T07:41:56;101581.44;;;23.39;40.01
61119;BME280;51448;51.660;5.824;2023-06-14T07:44:44;101587.75;;;23.38;40.14
61119;BME280;51448;51.660;5.824;2023-06-14T07:47:33;101582.28;;;23.39;40.81
61119;BME280;51448;51.660;5.824;2023-06-14T07:50:21;101579.28;;;23.57;40.87
61119;BME280;51448;51.660;5.824;2023-06-14T07:53:09;101584.97;;;23.78;40.04
61119;BME280;51448;51.660;5.824;2023-06-14T07:55:57;101587.28;;;23.95;39.70
61119;BME280;51448;51.660;5.824;2023-06-14T07:58:45;101592.50;;;24.09;39.23
61119;BME280;51448;51.660;5.824;2023-06-14T08:01:34;101596.13;;;24.21;38.65
61119;BME280;51448;51.660;5.824;2023-06-14T08:04:22;101595.75;;;24.26;38.07
61119;BME280;51448;51.660;5.824;2023-06-14T08:07:11;101594.34;;;24.33;38.92
61119;BME280;51448;51.660;5.824;2023-06-14T08:09:59;101588.91;;;24.46;38.04
61119;BME280;51448;51.660;5.824;2023-06-14T08:12:48;101598.72;;;24.47;37.35
61119;BME280;51448;51.660;5.824;2023-06-14T08:15:37;101592.16;;;24.51;37.09
61119;BME280;51448;51.660;5.824;2023-06-14T08:18:25;101606.50;;;24.63;35.99
61119;BME280;51448;51.660;5.824;2023-06-14T08:21:13;101602.13;;;24.73;36.45
61119;BME280;51448;51.660;5.824;2023-06-14T08:24:02;101594.97;;;24.85;36.61
61119;BME280;51448;51.660;5.824;2023-06-14T08:26:51;101598.44;;;24.98;35.35
61119;BME280;51448;51.660;5.824;2023-06-14T08:29:39;101606.38;;;24.88;34.64
61119;BME280;51448;51.660;5.824;2023-06-14T08:32:29;101602.03;;;24.75;34.74
61119;BME280;51448;51.660;5.824;2023-06-14T08:35:17;101602.38;;;24.70;34.60
61119;BME280;51448;51.660;5.824;2023-06-14T08:38:06;101599.16;;;24.65;34.89
61119;BME280;51448;51.660;5.824;2023-06-14T08:40:57;101605.88;;;24.59;34.90
61119;BME280;51448;51.660;5.824;2023-06-14T08:43:45;101600.38;;;24.61;34.56
61119;BME280;51448;51.660;5.824;2023-06-14T08:46:35;101607.47;;;24.62;34.49
61119;BME280;51448;51.660;5.824;2023-06-14T08:49:25;101597.00;;;24.70;34.37
61119;BME280;51448;51.660;5.824;2023-06-14T08:52:15;101605.00;;;24.83;34.67
61119;BME280;51448;51.660;5.824;2023-06-14T08:55:08;101602.09;;;24.86;34.17
61119;BME280;51448;51.660;5.824;2023-06-14T08:57:57;101598.03;;;24.92;33.66
61119;BME280;51448;51.660;5.824;2023-06-14T09:00:45;101600.50;;;24.95;32.58
61119;BME280;51448;51.660;5.824;2023-06-14T09:03:34;101601.88;;;25.00;33.94
61119;BME280;51448;51.660;5.824;2023-06-14T09:06:23;101593.81;;;25.12;32.07
61119;BME280;51448;51.660;5.824;2023-06-14T09:09:12;101599.09;;;25.13;32.81
61119;BME280;51448;51.660;5.824;2023-06-14T09:12:00;101599.38;;;25.21;32.57
61119;BME280;51448;51.660;5.824;2023-06-14T09:14:48;101600.84;;;25.37;33.11
61119;BME280;51448;51.660;5.824;2023-06-14T09:17:37;101592.81;;;25.48;32.80
61119;BME280;51448;51.660;5.824;2023-06-14T09:20:25;101606.16;;;25.49;33.66
61119;BME280;51448;51.660;5.824;2023-06-14T09:23:13;101608.84;;;25.61;33.44
61119;BME280;51448;51.660;5.824;2023-06-14T09:26:12;101609.59;;;25.74;32.72
61119;BME280;51448;51.660;5.824;2023-06-14T09:29:01;101613.75;;;25.78;31.82
61119;BME280;51448;51.660;5.824;2023-06-14T09:31:52;101609.44;;;25.76;32.33
61119;BME280;51448;51.660;5.824;2023-06-14T09:34:40;101605.66;;;25.78;32.10
61119;BME280;51448;51.660;5.824;2023-06-14T09:37:30;101606.25;;;25.82;32.30
61119;BME280;51448;51.660;5.824;2023-06-14T09:40:21;101611.16;;;25.77;31.71
61119;BME280;51448;51.660;5.824;2023-06-14T09:43:09;101607.25;;;25.69;32.15
61119;BME280;51448;51.660;5.824;2023-06-14T09:45:58;101614.34;;;25.70;32.75
61119;BME280;51448;51.660;5.824;2023-06-14T09:48:46;101608.09;;;25.81;32.22
61119;BME280;51448;51.660;5.824;2023-06-14T09:51:36;101609.56;;;25.85;32.43
61119;BME280;51448;51.660;5.824;2023-06-14T09:54:32;101605.56;;;25.91;32.92
61119;BME280;51448;51.660;5.824;2023-06-14T09:57:23;101604.06;;;25.98;32.68
61119;BME280;51448;51.660;5.824;2023-06-14T10:00:13;101609.22;;;26.01;31.80
61119;BME280;51448;51.660;5.824;2023-06-14T10:03:08;101602.31;;;26.08;32.12
61119;BME280;51448;51.660;5.824;2023-06-14T10:06:02;101610.91;;;26.14;31.56
61119;BME280;51448;51.660;5.824;2023-06-14T10:09:00;101595.84;;;26.11;32.29
61119;BME280;51448;51.660;5.824;2023-06-14T10:11:49;101604.06;;;26.09;32.90
61119;BME280;51448;51.660;5.824;2023-06-14T10:14:38;101603.78;;;26.13;33.25
61119;BME280;51448;51.660;5.824;2023-06-14T10:17:39;101600.97;;;26.14;32.34
61119;BME280;51448;51.660;5.824;2023-06-14T10:20:50;101597.91;;;26.19;31.82
61119;BME280;51448;51.660;5.824;2023-06-14T10:23:44;101607.09;;;26.16;32.92
61119;BME280;51448;51.660;5.824;2023-06-14T10:26:34;101594.34;;;26.18;32.55
61119;BME280;51448;51.660;5.824;2023-06-14T10:29:22;101600.56;;;26.30;32.94
61119;BME280;51448;51.660;5.824;2023-06-14T10:32:10;101594.06;;;26.33;32.52
61119;BME280;51448;51.660;5.824;2023-06-14T10:35:05;101587.34;;;26.27;32.42
61119;BME280;51448;51.660;5.824;2023-06-14T10:38:07;101594.34;;;26.29;33.56
61119;BME280;51448;51.660;5.824;2023-06-14T10:40:57;101600.31;;;26.33;33.22
61119;BME280;51448;51.660;5.824;2023-06-14T10:43:45;101594.19;;;26.31;32.47
61119;BME280;51448;51.660;5.824;2023-06-14T10:46:32;101604.41;;;26.27;33.16
61119;BME280;51448;51.660;5.824;2023-06-14T10:49:43;101602.78;;;26.25;33.69
61119;BME280;51448;51.660;5.824;2023-06-14T10:52:33;101599.34;;;26.23;33.70
61119;BME280;51448;51.660;5.824;2023-06-14T10:55:34;101587.69;;;26.34;32.67
61119;BME280;51448;51.660;5.824;2023-06-14T10:58:23;101589.00;;;26.39;32.48
61119;BME280;51448;51.660;5.824;2023-06-14T11:01:11;101604.84;;;26.33;31.60
61119;BME280;51448;51.660;5.824;2023-06-14T11:04:08;101608.69;;;26.19;32.93
61119;BME280;51448;51.660;5.824;2023-06-14T11:07:10;101601.59;;;26.18;32.78
61119;BME280;51448;51.660;5.824;2023-06-14T11:13:11;101602.28;;;26.31;32.56
61119;BME280;51448;51.660;5.824;2023-06-14T11:15:59;101598.59;;;26.32;32.77
61119;BME280;51448;51.660;5.824;2023-06-14T11:18:48;101591.38;;;26.33;32.24
61119;BME280;51448;51.660;5.824;2023-06-14T11:21:40;101611.09;;;26.33;31.74
61119;BME280;51448;51.660;5.824;2023-06-14T11:24:28;101607.66;;;26.31;32.36
61119;BME280;51448;51.660;5.824;2023-06-14T11:27:16;101603.28;;;26.30;32.10
61119;BME280;51448;51.660;5.824;2023-06-14T11:30:07;101610.38;;;26.31;32.91
61119;BME280;51448;51.660;5.824;2023-06-14T11:32:55;101592.22;;;26.33;31.76
61119;BME280;51448;51.660;5.824;2023-06-14T11:35:45;101591.50;;;26.31;32.22
61119;BME280;51448;51.660;5.824;2023-06-14T11:38:36;101583.78;;;26.26;31.69
61119;BME280;51448;51.660;5.824;2023-06-14T11:41:25;101585.13;;;26.32;31.43
61119;BME280;51448;51.660;5.824;2023-06-14T11:44:13;101588.28;;;26.37;31.61
61119;BME280;51448;51.660;5.824;2023-06-14T11:47:03;101588.38;;;26.47;31.83
61119;BME280;51448;51.660;5.824;2023-06-14T11:49:51;101597.44;;;26.57;31.85
61119;BME280;51448;51.660;5.824;2023-06-14T11:52:39;101583.66;;;26.72;31.27
61119;BME280;51448;51.660;5.824;2023-06-14T11:55:27;101596.22;;;26.82;32.51
61119;BME280;51448;51.660;5.824;2023-06-14T11:58:16;101595.16;;;26.95;30.75
61119;BME280;51448;51.660;5.824;2023-06-14T12:01:04;101596.22;;;26.82;30.92
61119;BME280;51448;51.660;5.824;2023-06-14T12:03:53;101590.56;;;26.85;31.36
61119;BME280;51448;51.660;5.824;2023-06-14T12:06:42;101595.16;;;26.95;30.94
61119;BME280;51448;51.660;5.824;2023-06-14T12:09:30;101594.19;;;26.96;30.84
61119;BME280;51448;51.660;5.824;2023-06-14T12:12:20;101596.94;;;26.84;30.42
61119;BME280;51448;51.660;5.824;2023-06-14T12:15:09;101596.28;;;26.71;31.54
61119;BME280;51448;51.660;5.824;2023-06-14T12:18:00;101592.97;;;26.67;32.00
61119;BME280;51448;51.660;5.824;2023-06-14T12:20:50;101595.66;;;26.79;32.62
61119;BME280;51448;51.660;5.824;2023-06-14T12:23:48;101589.03;;;26.93;31.54
61119;BME280;51448;51.660;5.824;2023-06-14T12:26:38;101593.72;;;26.90;30.70
61119;BME280;51448;51.660;5.824;2023-06-14T12:29:31;101594.25;;;26.84;30.56
61119;BME280;51448;51.660;5.824;2023-06-14T12:32:19;101608.47;;;26.86;30.07
61119;BME280;51448;51.660;5.824;2023-06-14T12:35:11;101600.16;;;26.78;30.10
61119;BME280;51448;51.660;5.824;2023-06-14T12:38:00;101591.28;;;26.66;31.21
61119;BME280;51448;51.660;5.824;2023-06-14T12:40:48;101595.03;;;26.75;31.95
61119;BME280;51448;51.660;5.824;2023-06-14T12:43:36;101593.34;;;26.95;30.80
61119;BME280;51448;51.660;5.824;2023-06-14T12:46:25;101591.28;;;27.08;31.25
61119;BME280;51448;51.660;5.824;2023-06-14T12:49:13;101597.69;;;27.28;30.92
61119;BME280;51448;51.660;5.824;2023-06-14T12:52:01;101596.31;;;27.34;29.36
61119;BME280;51448;51.660;5.824;2023-06-14T12:54:49;101603.41;;;27.14;30.17
61119;BME280;51448;51.660;5.824;2023-06-14T12:57:37;101597.53;;;27.09;30.92
61119;BME280;51448;51.660;5.824;2023-06-14T13:00:25;101600.44;;;27.17;30.80
61119;BME280;51448;51.660;5.824;2023-06-14T13:03:13;101590.00;;;27.24;30.78
61119;BME280;51448;51.660;5.824;2023-06-14T13:06:02;101593.75;;;27.33;30.88
61119;BME280;51448;51.660;5.824;2023-06-14T13:08:51;101592.06;;;27.41;29.97
61119;BME280;51448;51.660;5.824;2023-06-14T13:11:42;101592.25;;;27.49;29.69
61119;BME280;51448;51.660;5.824;2023-06-14T13:14:33;101586.97;;;27.48;29.78
61119;BME280;51448;51.660;5.824;2023-06-14T13:17:21;101599.94;;;27.54;30.54
61119;BME280;51448;51.660;5.824;2023-06-14T13:20:09;101597.53;;;27.51;29.25
61119;BME280;51448;51.660;5.824;2023-06-14T13:22:57;101599.75;;;27.36;29.55
61119;BME280;51448;51.660;5.824;2023-06-14T13:25:47;101605.22;;;27.25;29.75
61119;BME280;51448;51.660;5.824;2023-06-14T13:28:37;101605.09;;;27.26;30.04
61119;BME280;51448;51.660;5.824;2023-06-14T13:31:24;101599.69;;;27.26;29.36
61119;BME280;51448;51.660;5.824;2023-06-14T13:34:12;101605.34;;;27.23;29.66
61119;BME280;51448;51.660;5.824;2023-06-14T13:37:00;101597.09;;;27.25;29.64
61119;BME280;51448;51.660;5.824;2023-06-14T13:39:48;101603.34;;;27.25;30.03
61119;BME280;51448;51.660;5.824;2023-06-14T13:42:36;101598.28;;;27.32;30.18
61119;BME280;51448;51.660;5.824;2023-06-14T13:45:24;101585.41;;;27.45;30.13
61119;BME280;51448;51.660;5.824;2023-06-14T13:48:12;101591.59;;;27.57;30.51
61119;BME280;51448;51.660;5.824;2023-06-14T13:51:00;101595.63;;;27.73;30.12
61119;BME280;51448;51.660;5.824;2023-06-14T13:53:49;101589.41;;;27.82;29.71
61119;BME280;51448;51.660;5.824;2023-06-14T13:56:38;101592.53;;;27.77;29.56
61119;BME280;51448;51.660;5.824;2023-06-14T13:59:26;101582.09;;;27.73;29.38
61119;BME280;51448;51.660;5.824;2023-06-14T14:02:14;101580.44;;;27.81;29.91
61119;BME280;51448;51.660;5.824;2023-06-14T14:05:02;101586.91;;;27.90;29.12
61119;BME280;51448;51.660;5.824;2023-06-14T14:07:50;101576.72;;;27.82;29.18
61119;BME280;51448;51.660;5.824;2023-06-14T14:10:39;101574.16;;;27.81;28.78
61119;BME280;51448;51.660;5.824;2023-06-14T14:13:27;101586.41;;;27.75;28.91
61119;BME280;51448;51.660;5.824;2023-06-14T14:16:15;101579.72;;;27.79;29.79
61119;BME280;51448;51.660;5.824;2023-06-14T14:19:03;101576.59;;;27.84;30.02
61119;BME280;51448;51.660;5.824;2023-06-14T14:21:52;101582.22;;;27.92;29.89
61119;BME280;51448;51.660;5.824;2023-06-14T14:24:41;101579.78;;;27.99;29.79
61119;BME280;51448;51.660;5.824;2023-06-14T14:27:29;101566.72;;;27.94;29.91
61119;BME280;51448;51.660;5.824;2023-06-14T14:30:17;101570.13;;;27.96;30.65
61119;BME280;51448;51.660;5.824;2023-06-14T14:33:06;101575.56;;;28.06;29.77
61119;BME280;51448;51.660;5.824;2023-06-14T14:35:55;101563.88;;;28.05;29.93
61119;BME280;51448;51.660;5.824;2023-06-14T14:38:43;101578.09;;;27.98;29.59
61119;BME280;51448;51.660;5.824;2023-06-14T14:41:31;101582.56;;;27.78;29.75
61119;BME280;51448;51.660;5.824;2023-06-14T14:44:18;101574.59;;;27.76;29.28
61119;BME280;51448;51.660;5.824;2023-06-14T14:47:07;101574.31;;;27.79;30.43
61119;BME280;51448;51.660;5.824;2023-06-14T14:49:55;101575.16;;;27.80;31.06
61119;BME280;51448;51.660;5.824;2023-06-14T14:52:42;101578.72;;;27.80;30.17